ブルネイ国際空港の過去48時間の天気

ブルネイ国際空港 (Brunei Airport)

現在時刻: 5/28 11:23 +08 (5/28 03:23 UTC) 以下の時間は現地時間です。

過去48時間のMETAR気象情報
時間 風向 風速(m/s) 視程 気温(℃) 湿度(%) 気圧(hPa) 天気現象
28 11:00 南南西 3 10km以上 31 75 1013
28 10:30 3 10km以上 30 75 1013
28 10:00 3 10km以上 29 79 1013
28 09:30 南西 3 10km以上 28 84 1013
28 09:00 4 10km以上 27 89 1013
28 08:30 南南西 5 10km以上 27 84 1013
28 08:00 南西 4 10km以上 26 89 1013
28 07:30 南南西 2 10km以上 26 89 1013
28 07:00 南西 2 10km以上 26 94 1012
28 06:30 南西 2 10km以上 26 94 1012
28 06:00 2 10km以上 26 94 1012
28 05:30 南西 2 10km以上 25 94 1012
28 05:00 2 10km以上 25 94 1011
28 04:30 南南西 2 10km以上 25 94 1011
28 04:00 西南西 2 10km以上 26 94 1011
28 03:30 西 2 10km以上 26 94 1011
28 03:00 東北東 1 10km以上 26 94 1012
28 02:30 北北西 1 10km以上 26 94 1012
28 02:00 西南西 1 10km以上 26 94 1012
28 01:30 南南東 2 10km以上 26 94 1012
28 01:00 南南東 2 10km以上 26 94 1012
28 00:30 2 10km以上 26 94 1012
28 00:00 1 10km以上 26 89 1012
27 23:30 南東 1 10km以上 26 89 1012
27 23:00 静穏 0 10km以上 26 89 1012
27 22:30 1 10km以上 26 89 1012
27 22:00 北西 2 10km以上 26 89 1013 弱い雷雨
27 21:30 西 1 10km以上 26 94 1013 弱い雷雨
27 21:00 1 10km以上 26 94 1012 弱い雷雨
27 20:30 4 8000m 26 94 1012 弱い雷雨
27 20:00 南東 3 5000m 26 94 1011 弱い雷雨
27 19:30 南東 3 6000m 27 89 1011 弱い雷雨
27 19:00 南東 5 6000m 28 84 1011 弱い雷雨
27 18:30 西南西 1 6000m 30 75 1010 弱い雷雨
27 18:00 西南西 1 10km以上 31 75 1010
27 17:30 北西 2 10km以上 31 75 1010
27 17:00 西北西 2 10km以上 31 75 1009
27 16:30 北西 2 10km以上 31 75 1009
27 16:00 西北西 3 10km以上 31 75 1009
27 15:30 北北西 2 10km以上 31 75 1009
27 15:00 北西 2 10km以上 31 75 1009
27 14:30 4 10km以上 32 67 1010
27 14:00 北北西 3 10km以上 33 67 1009
27 13:30 北北西 2 10km以上 33 63 1010
27 13:00 北西 3 10km以上 33 63 1010
27 12:30 北北西 2 10km以上 31 70 1011
27 12:00 南南東 3 8000m 31 70 1011 しゅう雨
27 11:30 南南西 2 6000m 29 79 1012
27 11:00 西 2 6000m 28 84 1013 弱い雷雨
27 10:30 4 2000m 27 84 1013 弱い雷雨
27 10:00 2 4000m 29 84 1013 弱い雷雨
27 09:30 西 1 10km以上 30 84 1012 弱いしゅう雨
27 09:00 西 3 10km以上 29 89 1012 弱いしゅう雨
27 08:30 南西 3 10km以上 29 89 1012
27 08:00 3 10km以上 29 84 1012
27 07:30 南南西 2 10km以上 29 84 1011
27 07:00 西 1 10km以上 28 89 1011
27 06:30 南南西 1 10km以上 28 89 1011
27 06:00 西 1 10km以上 28 89 1010
27 05:30 南南西 2 10km以上 28 89 1010
27 05:00 南西 1 10km以上 28 89 1010
27 04:30 南西 1 10km以上 28 89 1010
27 04:00 南西 1 10km以上 28 89 1010
27 03:30 南西 2 10km以上 28 89 1010
27 03:00 南西 2 10km以上 29 84 1010
27 02:30 南西 2 10km以上 28 89 1010
27 02:00 南西 1 10km以上 29 84 1010
27 01:30 南南西 1 10km以上 29 84 1010
27 01:00 南西 1 10km以上 29 84 1011
27 00:30 北北西 1 10km以上 29 84 1011
27 00:00 南西 1 10km以上 29 84 1011
26 23:30 1 10km以上 30 79 1011
26 23:00 北東 1 10km以上 30 79 1011
26 22:30 北東 3 10km以上 30 84 1011
26 22:00 北東 2 10km以上 30 79 1011
26 21:30 2 10km以上 30 79 1011
26 21:00 2 10km以上 30 79 1011
26 20:30 2 10km以上 30 79 1011
26 20:00 2 10km以上 30 79 1010
26 19:30 2 10km以上 30 79 1010
26 19:00 2 10km以上 31 75 1010
26 18:30 北北西 2 10km以上 31 70 1009
26 18:00 3 10km以上 32 71 1009
26 17:30 北北西 3 10km以上 32 71 1009
26 17:00 北北西 3 10km以上 33 67 1008
26 16:30 北北西 3 10km以上 32 67 1008
26 16:00 北北西 3 10km以上 33 67 1009
26 15:30 北北西 3 10km以上 33 63 1009
26 15:00 北北西 4 10km以上 33 63 1009
26 14:30 3 10km以上 33 63 1009
26 14:00 北北西 3 10km以上 33 67 1010
26 13:30 北北西 3 10km以上 33 67 1010
26 13:00 北北東 2 10km以上 34 60 1011
26 12:30 4 10km以上 33 63 1011
26 12:00 3 10km以上 33 63 1011
26 11:30 北北東 3 10km以上 33 63 1011
WBSB 280300Z 20006KT 9999 FEW016 BKN300 31/26 Q1013 NOSIG
WBSB 280230Z 18006KT 9999 FEW015 BKN280 30/25 Q1013 NOSIG
WBSB 280200Z 17005KT 9999 FEW015 SCT140 BKN280 29/25 Q1013 NOSIG
WBSB 280130Z 22005KT 9999 FEW015 SCT140 BKN280 28/25 Q1013 NOSIG
WBSB 280100Z 19008KT 9999 FEW015 BKN140 27/25 Q1013 NOSIG
WBSB 280030Z 21009KT 9999 FEW007 BKN140 27/24 Q1013 NOSIG
WBSB 280000Z 22007KT 9999 FEW007 BKN140 26/24 Q1013 NOSIG
WBSB 272330Z 20004KT 9999 FEW007 BKN140 26/24 Q1013 NOSIG
WBSB 272300Z 22003KT 9999 FEW005 BKN140 26/25 Q1012 NOSIG
WBSB 272230Z 22003KT 9999 FEW005 BKN140 26/25 Q1012 NOSIG
WBSB 272200Z 19003KT 9999 FEW003 BKN140 26/25 Q1012 NOSIG
WBSB 272130Z 23004KT 9999 FEW003 SCT014 BKN140 25/24 Q1012 NOSIG
WBSB 272100Z 18004KT 9999 FEW003 SCT014 BKN140 25/24 Q1011 NOSIG
WBSB 272030Z 21004KT 9999 FEW003 BKN140 25/24 Q1011 NOSIG
WBSB 272000Z 25003KT 9999 FEW003 BKN140 26/25 Q1011 RETS NOSIG
WBSB 271930Z 26004KT 9999 FEW003 FEW015CB BKN140 26/25 Q1011 RETS NOSIG
WBSB 271900Z 07001KT 9999 TS FEW003 FEW015CB BKN140 26/25 Q1012 NOSIG
WBSB 271830Z 34002KT 9999 TS FEW014 FEW015CB BKN140 26/25 Q1012 NOSIG
WBSB 271800Z 25001KT 9999 TS FEW014 FEW015CB BKN300 26/25 Q1012 NOSIG
WBSB 271730Z 15004KT 9999 TS FEW014 FEW015CB BKN300 26/25 Q1012 NOSIG
WBSB 271700Z 16003KT 9999 TS FEW014 FEW015CB SCT140 BKN300 26/25 Q1012 NOSIG
WBSB 271630Z 17004KT 9999 TS FEW014 SCT015CB SCT140 BKN300 26/25 Q1012 NOSIG
WBSB 271600Z 19002KT 9999 TS FEW004 FEW015CB BKN140 26/24 Q1012 NOSIG
WBSB 271530Z 14002KT 9999 FEW004 BKN140 26/24 Q1012 RETS NOSIG
WBSB 271500Z 00000KT 9999 FEW004 FEW015CB BKN140 26/24 Q1012 RERA RETS NOSIG
WBSB 271430Z 17001KT 9999 TS FEW004 FEW015CB BKN140 26/24 Q1012 RERA TEMPO 8000 -TSRA
WBSB 271400Z 31003KT 9999 -TSRA FEW004 FEW015CB BKN150 26/24 Q1013 TEMPO 8000 -TSRA
WBSB 271330Z 26002KT 9999 -TSRA FEW004 FEW015CB BKN150 26/25 Q1013 TEMPO 8000 -TSRA
WBSB 271300Z 19002KT 9999 -TSRA FEW004 FEW015CB BKN150 26/25 Q1012 TEMPO 8000 -TSRA
WBSB 271230Z 17007KT 8000 -TSRA FEW004 FEW015CB BKN150 26/25 Q1012 TEMPO 5000 TSRA
WBSB 271200Z 14005KT 5000 -TSRA SCT014 FEW015CB BKN140 26/25 Q1011 TEMPO 5000 TSRA
WBSB 271130Z 13005KT 6000 -TSRA SCT014 FEW015CB BKN140 27/25 Q1011 NOSIG
WBSB 271100Z 13010KT 6000 -TSRA SCT014 FEW015CB BKN140 28/25 Q1011 NOSIG
WBSB 271030Z 25002KT 6000 -TSRA SCT014 FEW015CB BKN140 30/25 Q1010 NOSIG
WBSB 271000Z 25002KT 9999 FEW015 FEW016CB SCT150 BKN280 31/26 Q1010 NOSIG
WBSB 270930Z 31003KT 9999 FEW015 FEW016CB BKN280 31/26 Q1010 NOSIG
WBSB 270900Z 30004KT 9999 FEW015 FEW016CB BKN280 31/26 Q1009 NOSIG
WBSB 270830Z 31004KT 9999 FEW015 FEW016CB BKN270 31/26 Q1009 NOSIG
WBSB 270800Z 30005KT 9999 FEW015 FEW016CB BKN270 31/26 Q1009 NOSIG
WBSB 270730Z 34004KT 9999 FEW015 FEW016CB SCT140 BKN270 31/26 Q1009 NOSIG
WBSB 270700Z 32004KT 9999 FEW015 FEW016CB SCT140 BKN270 31/26 Q1009 NOSIG
WBSB 270630Z 35007KT 9999 FEW015 FEW016CB SCT140 BKN270 32/25 Q1010 NOSIG
WBSB 270600Z 33005KT 9999 FEW015 FEW016CB BKN300 33/26 Q1009 NOSIG
WBSB 270530Z 34004KT 9999 FEW016 FEW017CB BKN300 33/25 Q1010 NOSIG
WBSB 270500Z 32005KT 9999 FEW015 FEW016CB SCT140 BKN300 33/25 Q1010 NOSIG
WBSB 270430Z 34003KT 9999 FEW015 FEW016CB SCT140 BKN300 31/25 Q1011 RETS NOSIG
WBSB 270400Z 15005KT 8000 SCT015 FEW016CB SCT140 BKN300 31/25 Q1011 RETS RESHRA NOSIG
WBSB 270330Z 20003KT 6000 TS SCT014 FEW015CB SCT140 BKN300 29/25 Q1012 RESHRA NOSIG
WBSB 270300Z 28003KT 6000 -TSRA SCT014 FEW015CB SCT140 BKN300 28/25 Q1013 NOSIG
WBSB 270230Z 08007KT 2000 -TSRA SCT014 SCT015CB BKN140 27/24 Q1013 TEMPO 5000 TSRA
WBSB 270200Z 18003KT 4000 -TSRA SCT014 FEW015CB SCT140 BKN300 29/26 Q1013 TEMPO 5000 TSRA
WBSB 270130Z 26002KT 9999 -SHRA SCT014 FEW015CB SCT140 BKN300 30/27 Q1012 TEMPO 8000 -TSRA
WBSB 270100Z 28005KT 9999 -SHRA SCT014 FEW015CB SCT140 BKN300 29/27 Q1012 RETS TEMPO 8000 -TSRA
WBSB 270030Z 22005KT 9999 SCT015 FEW016CB BKN300 29/27 Q1012 RETS TEMPO 8000 -TSRA
WBSB 270000Z 19006KT 9999 TS SCT015 FEW016CB BKN300 29/26 Q1012 NOSIG
WBSB 262330Z 21004KT 9999 TS FEW015 FEW016CB BKN300 29/26 Q1011 NOSIG
WBSB 262300Z 28002KT 9999 TS FEW015 FEW016CB BKN300 28/26 Q1011 NOSIG
WBSB 262230Z 21002KT 9999 TS FEW015 FEW016CB BKN300 28/26 Q1011 NOSIG
WBSB 262200Z 27002KT 9999 FEW015 BKN300 28/26 Q1010 NOSIG
WBSB 262130Z 20003KT 9999 FEW015 BKN300 28/26 Q1010 NOSIG
WBSB 262100Z 23002KT 9999 FEW015 BKN300 28/26 Q1010 NOSIG
WBSB 262030Z 22002KT 9999 FEW015 BKN300 28/26 Q1010 NOSIG
WBSB 262000Z 23002KT 9999 FEW015 BKN300 28/26 Q1010 NOSIG
WBSB 261930Z 22003KT 9999 FEW015 BKN300 28/26 Q1010 NOSIG
WBSB 261900Z 22004KT 9999 FEW015 BKN300 29/26 Q1010 NOSIG
WBSB 261830Z 22003KT 9999 FEW015 BKN300 28/26 Q1010 NOSIG
WBSB 261800Z 23001KT 9999 FEW015 BKN300 29/26 Q1010 NOSIG
WBSB 261730Z 20001KT 9999 FEW015 BKN300 29/26 Q1010 NOSIG
WBSB 261700Z 22001KT 9999 FEW015 BKN300 29/26 Q1011 NOSIG
WBSB 261630Z 34001KT 9999 FEW015 BKN300 29/26 Q1011 NOSIG
WBSB 261600Z 22001KT 9999 FEW015 BKN300 29/26 Q1011 NOSIG
WBSB 261530Z 17001KT 9999 FEW015 BKN300 30/26 Q1011 NOSIG
WBSB 261500Z 04002KT 9999 FEW015 BKN300 30/26 Q1011 NOSIG
WBSB 261430Z 04005KT 9999 FEW015 BKN300 30/27 Q1011 NOSIG
WBSB 261400Z 04003KT 9999 FEW015 BKN300 30/26 Q1011 NOSIG
WBSB 261330Z 36004KT 9999 FEW015 BKN300 30/26 Q1011 NOSIG
WBSB 261300Z 35004KT 9999 FEW015 BKN300 30/26 Q1011 NOSIG
WBSB 261230Z 01003KT 9999 FEW015 BKN300 30/26 Q1011 NOSIG
WBSB 261200Z 35003KT 9999 FEW015 BKN300 30/26 Q1010 NOSIG
WBSB 261130Z 35003KT 9999 FEW015 BKN300 30/26 Q1010 NOSIG
WBSB 261100Z 35004KT 9999 FEW016 FEW017CB BKN300 31/26 Q1010 NOSIG
WBSB 261030Z 34004KT 9999 FEW016 FEW017CB SCT300 31/25 Q1009 NOSIG
WBSB 261000Z 36006KT 9999 FEW016 FEW017CB SCT300 32/26 Q1009 NOSIG
WBSB 260930Z 33006KT 9999 FEW016 FEW017CB SCT300 32/26 Q1009 NOSIG
WBSB 260900Z 34005KT 9999 FEW016 FEW017CB SCT300 33/26 Q1008 NOSIG
WBSB 260830Z 34006KT 9999 FEW016 FEW017CB SCT300 32/25 Q1008 NOSIG
WBSB 260800Z 33005KT 9999 FEW017 FEW018CB SCT300 33/26 Q1009 NOSIG
WBSB 260730Z 33006KT 9999 FEW017 FEW018CB SCT300 33/25 Q1009 NOSIG
WBSB 260700Z 34007KT 9999 FEW017 FEW018CB SCT300 33/25 Q1009 NOSIG
WBSB 260630Z 35006KT 9999 FEW017 FEW018CB SCT300 33/25 Q1009 NOSIG
WBSB 260600Z 34006KT 9999 FEW017 FEW018CB SCT300 33/26 Q1010 NOSIG
WBSB 260530Z 34005KT 9999 FEW017 BKN300 33/26 Q1010 NOSIG
WBSB 260500Z 03003KT 9999 FEW017 BKN300 34/25 Q1011 NOSIG
WBSB 260430Z 01007KT 9999 SCT016 BKN300 33/25 Q1011 NOSIG
WBSB 260400Z 36005KT 9999 SCT016 BKN300 33/25 Q1011 NOSIG
WBSB 260330Z 03005KT 9999 FEW017 BKN300 33/25 Q1011 NOSIG